createdAt,value
2023-09-10T00:00:34.009Z,95391.44
2023-09-10T00:03:00.733Z,95396.16
2023-09-10T00:05:27.673Z,95402.78
2023-09-10T00:07:54.541Z,95383.69
2023-09-10T00:10:21.290Z,95398.66
2023-09-10T00:12:47.912Z,95397.50
2023-09-10T00:15:14.658Z,95396.38
2023-09-10T00:17:41.301Z,95387.50
2023-09-10T00:20:08.850Z,95389.59
2023-09-10T00:22:35.754Z,95389.00
2023-09-10T00:25:02.441Z,95390.69
2023-09-10T00:27:29.142Z,95389.47
2023-09-10T00:29:55.797Z,95381.34
2023-09-10T00:32:23.198Z,95370.88
2023-09-10T00:34:50.151Z,95383.13
2023-09-10T00:37:17.790Z,95372.00
2023-09-10T00:39:44.897Z,95379.81
2023-09-10T00:42:12.050Z,95369.75
2023-09-10T00:44:38.724Z,95376.44
2023-09-10T00:47:05.985Z,95389.03
2023-09-10T00:49:33.098Z,95382.31
2023-09-10T00:52:03.750Z,95391.09
2023-09-10T00:54:34.074Z,95386.19
2023-09-10T00:57:04.639Z,95384.66
2023-09-10T00:59:32.115Z,95377.16
2023-09-10T01:02:00.055Z,95385.88
2023-09-10T01:04:27.381Z,95382.44
2023-09-10T01:06:54.461Z,95382.28
2023-09-10T01:09:22.841Z,95379.94
2023-09-10T01:12:12.208Z,95382.88
2023-09-10T01:14:48.267Z,95375.69
2023-09-10T01:17:33.198Z,95384.38
2023-09-10T01:20:24.978Z,95379.53
2023-09-10T01:23:00.641Z,95377.16
2023-09-10T01:25:27.389Z,95376.41
2023-09-10T01:27:54.034Z,95373.28
2023-09-10T01:30:20.684Z,95378.88
2023-09-10T01:32:55.711Z,95382.69
2023-09-10T01:35:30.287Z,95381.75
2023-09-10T01:38:06.679Z,95382.25
2023-09-10T01:40:43.713Z,95378.44
2023-09-10T01:43:11.030Z,95364.53
2023-09-10T01:45:37.858Z,95396.66
2023-09-10T01:48:05.430Z,95392.72
2023-09-10T01:50:32.223Z,95373.72
2023-09-10T01:53:02.284Z,95386.81
2023-09-10T01:55:29.077Z,95390.00
2023-09-10T01:58:00.060Z,95380.47
2023-09-10T02:00:26.878Z,95376.81
2023-09-10T02:02:54.143Z,95370.78
2023-09-10T02:05:20.987Z,95398.25
2023-09-10T02:07:47.701Z,95389.91
2023-09-10T02:10:14.399Z,95381.28
2023-09-10T02:12:41.110Z,95394.50
2023-09-10T02:15:09.674Z,95391.31
2023-09-10T02:17:36.537Z,95402.97
2023-09-10T02:20:05.885Z,95399.03
2023-09-10T02:22:32.569Z,95383.13
2023-09-10T02:25:01.972Z,95393.88
2023-09-10T02:27:28.819Z,95409.00
2023-09-10T02:29:55.594Z,95385.34
2023-09-10T02:32:22.294Z,95407.47
2023-09-10T02:34:49.055Z,95403.69
2023-09-10T02:37:15.844Z,95409.00
2023-09-10T02:39:42.562Z,95404.47
2023-09-10T02:42:09.267Z,95406.09
2023-09-10T02:44:36.023Z,95388.66
2023-09-10T02:47:03.007Z,95386.63
2023-09-10T02:49:29.758Z,95393.88
2023-09-10T02:51:56.505Z,95392.50
2023-09-10T02:54:23.170Z,95399.91
2023-09-10T02:56:51.686Z,95397.25
2023-09-10T02:59:27.478Z,95390.28
2023-09-10T03:01:54.760Z,95397.13
2023-09-10T03:04:21.946Z,95400.16
2023-09-10T03:06:51.074Z,95404.25
2023-09-10T03:09:17.976Z,95384.59
2023-09-10T03:11:46.104Z,95386.16
2023-09-10T03:14:13.050Z,95396.78
2023-09-10T03:16:40.663Z,95410.47
2023-09-10T03:19:07.596Z,95376.72
2023-09-10T03:21:36.215Z,95395.41
2023-09-10T03:24:02.851Z,95397.25
2023-09-10T03:26:29.484Z,95407.09
2023-09-10T03:28:56.167Z,95410.44
2023-09-10T03:31:22.874Z,95408.94
2023-09-10T03:33:50.121Z,95420.03
2023-09-10T03:36:16.704Z,95412.88
2023-09-10T03:38:43.293Z,95416.66
2023-09-10T03:41:10.078Z,95413.97
2023-09-10T03:43:36.923Z,95414.25
2023-09-10T03:46:03.568Z,95415.63
2023-09-10T03:48:30.235Z,95428.66
2023-09-10T03:50:56.922Z,95410.16
2023-09-10T03:53:23.552Z,95423.47
2023-09-10T03:55:50.252Z,95406.50
2023-09-10T03:58:16.898Z,95425.63
2023-09-10T04:00:43.603Z,95423.16
2023-09-10T04:03:10.288Z,95417.88
2023-09-10T04:05:37.784Z,95417.09
2023-09-10T04:08:05.322Z,95423.50
2023-09-10T04:10:32.043Z,95408.94
2023-09-10T04:12:58.676Z,95426.97
2023-09-10T04:15:25.326Z,95436.22
2023-09-10T04:17:51.984Z,95416.97
2023-09-10T04:20:20.993Z,95432.53
2023-09-10T04:22:48.412Z,95424.94
2023-09-10T04:25:15.163Z,95423.44
2023-09-10T04:27:41.917Z,95437.22
2023-09-10T04:30:08.974Z,95433.13
2023-09-10T04:32:35.608Z,95434.34
2023-09-10T04:35:06.145Z,95434.91
2023-09-10T04:37:33.486Z,95429.59
2023-09-10T04:40:00.233Z,95445.06
2023-09-10T04:42:27.297Z,95433.66
2023-09-10T04:44:53.991Z,95436.09
2023-09-10T04:47:20.692Z,95442.16
2023-09-10T04:49:47.380Z,95443.56
2023-09-10T04:52:16.501Z,95443.38
2023-09-10T04:54:43.767Z,95433.13
2023-09-10T04:57:11.645Z,95442.38
2023-09-10T04:59:38.431Z,95429.69
2023-09-10T05:02:08.208Z,95452.97
2023-09-10T05:04:34.985Z,95447.28
2023-09-10T05:07:01.690Z,95439.66
2023-09-10T05:09:28.348Z,95456.22
2023-09-10T05:11:57.803Z,95451.34
2023-09-10T05:14:27.007Z,95439.84
2023-09-10T05:16:53.926Z,95446.69
2023-09-10T05:19:27.067Z,95435.91
2023-09-10T05:21:53.684Z,95448.66
2023-09-10T05:24:20.361Z,95459.19
2023-09-10T05:26:47.071Z,95464.56
2023-09-10T05:29:13.803Z,95466.44
2023-09-10T05:31:40.511Z,95459.34
2023-09-10T05:34:07.330Z,95460.13
2023-09-10T05:36:35.585Z,95447.22
2023-09-10T05:39:02.833Z,95455.06
2023-09-10T05:41:29.464Z,95453.13
2023-09-10T05:43:56.131Z,95470.47
2023-09-10T05:46:25.909Z,95467.91
2023-09-10T05:48:52.621Z,95460.94
2023-09-10T05:51:19.226Z,95465.44
2023-09-10T05:53:46.008Z,95474.78
2023-09-10T05:56:13.041Z,95474.28
2023-09-10T05:58:40.023Z,95462.00
2023-09-10T06:01:07.200Z,95467.47
2023-09-10T06:03:34.467Z,95470.78
2023-09-10T06:06:02.722Z,95482.47
2023-09-10T06:08:33.371Z,95477.28
2023-09-10T06:11:00.093Z,95476.25
2023-09-10T06:13:26.753Z,95485.81
2023-09-10T06:15:53.503Z,95476.53
2023-09-10T06:18:20.252Z,95484.31
2023-09-10T06:20:46.870Z,95489.13
2023-09-10T06:23:13.614Z,95486.63
2023-09-10T06:25:40.397Z,95481.88
2023-09-10T06:28:07.802Z,95490.38
2023-09-10T06:30:34.439Z,95489.34
2023-09-10T06:33:01.223Z,95477.56
2023-09-10T06:35:27.925Z,95487.31
2023-09-10T06:37:54.835Z,95485.00
2023-09-10T06:40:21.579Z,95480.69
2023-09-10T06:42:48.231Z,95470.38
2023-09-10T06:45:14.980Z,95478.91
2023-09-10T06:47:41.749Z,95482.16
2023-09-10T06:50:08.836Z,95467.78
2023-09-10T06:52:35.530Z,95463.50
2023-09-10T06:55:02.700Z,95467.78
2023-09-10T06:57:30.778Z,95458.78
2023-09-10T06:59:58.675Z,95464.16
2023-09-10T07:02:26.652Z,95478.81
2023-09-10T07:04:53.607Z,95472.84
2023-09-10T07:07:20.447Z,95473.09
2023-09-10T07:09:47.107Z,95458.78
2023-09-10T07:12:13.712Z,95475.25
2023-09-10T07:14:40.441Z,95466.53
2023-09-10T07:17:07.411Z,95478.75
2023-09-10T07:19:34.139Z,95473.97
2023-09-10T07:22:00.765Z,95468.31
2023-09-10T07:24:27.486Z,95473.13
2023-09-10T07:26:54.585Z,95471.47
2023-09-10T07:29:21.723Z,95462.75
2023-09-10T07:31:48.732Z,95470.28
2023-09-10T07:34:15.780Z,95463.84
2023-09-10T07:36:44.754Z,95465.44
2023-09-10T07:39:11.550Z,95462.28
2023-09-10T07:41:38.326Z,95457.75
2023-09-10T07:44:05.414Z,95466.34
2023-09-10T07:46:33.856Z,95460.72
2023-09-10T07:49:00.733Z,95455.53
2023-09-10T07:51:27.713Z,95454.78
2023-09-10T07:53:54.386Z,95461.72
2023-09-10T07:56:21.266Z,95461.81
2023-09-10T07:58:48.258Z,95442.53
2023-09-10T08:01:15.128Z,95457.56
2023-09-10T08:03:43.540Z,95440.75
2023-09-10T08:06:11.137Z,95429.72
2023-09-10T08:08:38.189Z,95452.63
2023-09-10T08:11:05.296Z,95455.63
2023-09-10T08:13:32.151Z,95458.53
2023-09-10T08:15:58.990Z,95431.00
2023-09-10T08:18:25.811Z,95441.47
2023-09-10T08:20:52.697Z,95435.88
2023-09-10T08:23:19.609Z,95442.22
2023-09-10T08:25:46.398Z,95440.63
2023-09-10T08:28:13.287Z,95438.25
2023-09-10T08:30:40.057Z,95439.66
2023-09-10T08:33:07.084Z,95440.50
2023-09-10T08:35:46.352Z,95431.13
2023-09-10T08:38:13.717Z,95421.44
2023-09-10T08:40:46.569Z,95428.56
2023-09-10T08:43:16.795Z,95419.97
2023-09-10T08:45:45.015Z,95437.19
2023-09-10T08:48:14.832Z,95431.41
2023-09-10T08:50:42.199Z,95422.66
2023-09-10T08:53:15.178Z,95420.75
2023-09-10T08:55:47.696Z,95436.19
2023-09-10T08:58:15.446Z,95430.50
2023-09-10T09:00:44.506Z,95415.22
2023-09-10T09:03:11.774Z,95418.66
2023-09-10T09:05:39.718Z,95426.38
2023-09-10T09:08:36.819Z,95423.56
2023-09-10T09:11:08.170Z,95422.66
2023-09-10T09:13:38.542Z,95426.63
2023-09-10T09:16:06.928Z,95419.38
2023-09-10T09:18:37.444Z,95425.56
2023-09-10T09:21:13.604Z,95424.53
2023-09-10T09:23:51.472Z,95415.75
2023-09-10T09:26:19.833Z,95409.53
2023-09-10T09:28:47.469Z,95407.75
2023-09-10T09:31:14.356Z,95418.00
2023-09-10T09:33:41.837Z,95410.75
2023-09-10T09:36:12.589Z,95380.91
2023-09-10T09:38:47.188Z,95400.50
2023-09-10T09:41:18.334Z,95396.25
2023-09-10T09:43:46.086Z,95419.25
2023-09-10T09:46:14.330Z,95409.53
2023-09-10T09:48:41.458Z,95390.03
2023-09-10T09:51:08.653Z,95394.84
2023-09-10T09:53:37.250Z,95382.72
2023-09-10T09:56:05.883Z,95394.16
2023-09-10T09:58:33.473Z,95390.31
2023-09-10T10:01:01.257Z,95381.03
2023-09-10T10:03:35.723Z,95388.59
2023-09-10T10:06:03.044Z,95389.81
2023-09-10T10:08:30.904Z,95378.38
2023-09-10T10:10:58.428Z,95372.09
2023-09-10T10:13:27.378Z,95366.69
2023-09-10T10:15:56.637Z,95371.75
2023-09-10T10:18:25.347Z,95380.53
2023-09-10T10:20:53.371Z,95378.00
2023-09-10T10:23:39.055Z,95355.09
2023-09-10T10:26:07.631Z,95378.19
2023-09-10T10:28:38.696Z,95356.84
2023-09-10T10:31:14.237Z,95354.69
2023-09-10T10:33:51.139Z,95350.13
2023-09-10T10:36:49.440Z,95350.91
2023-09-10T10:39:18.180Z,95384.78
2023-09-10T10:41:49.241Z,95369.53
2023-09-10T10:44:31.883Z,95368.16
2023-09-10T10:47:03.943Z,95356.22
2023-09-10T10:49:32.286Z,95367.16
2023-09-10T10:52:03.986Z,95352.06
2023-09-10T10:54:31.514Z,95364.41
2023-09-10T10:56:58.714Z,95347.44
2023-09-10T10:59:26.366Z,95342.22
2023-09-10T11:02:14.565Z,95341.28
2023-09-10T11:04:55.482Z,95334.63
2023-09-10T11:07:23.682Z,95347.69
2023-09-10T11:09:50.822Z,95337.41
2023-09-10T11:12:17.959Z,95335.69
2023-09-10T11:15:06.608Z,95331.84
2023-09-10T11:17:34.886Z,95335.66
2023-09-10T11:20:02.016Z,95324.66
2023-09-10T11:22:29.044Z,95321.81
2023-09-10T11:25:08.787Z,95317.16
2023-09-10T11:27:35.935Z,95314.94
2023-09-10T11:30:10.001Z,95319.50
2023-09-10T11:32:37.883Z,95302.13
2023-09-10T11:35:20.192Z,95306.69
2023-09-10T11:37:51.795Z,95296.47
2023-09-10T11:40:20.232Z,95304.28
2023-09-10T11:42:48.958Z,95307.72
2023-09-10T11:45:17.427Z,95302.25
2023-09-10T11:47:46.505Z,95302.03
2023-09-10T11:50:15.637Z,95302.03
2023-09-10T11:52:42.732Z,95305.63
2023-09-10T11:55:12.604Z,95301.31
2023-09-10T11:57:43.167Z,95291.09
2023-09-10T12:00:13.404Z,95246.84
2023-09-10T12:02:41.735Z,95273.22
2023-09-10T12:05:09.912Z,95280.69
2023-09-10T12:07:37.265Z,95279.13
2023-09-10T12:10:04.981Z,95293.28
2023-09-10T12:12:38.781Z,95265.03
2023-09-10T12:15:06.518Z,95309.72
2023-09-10T12:17:33.636Z,95307.50
2023-09-10T12:20:01.152Z,95286.00
2023-09-10T12:22:28.017Z,95286.78
2023-09-10T12:24:54.944Z,95279.09
2023-09-10T12:27:22.491Z,95271.22
2023-09-10T12:29:49.280Z,95277.25
2023-09-10T12:32:16.351Z,95270.94
2023-09-10T12:34:43.339Z,95253.72
2023-09-10T12:37:15.800Z,95273.78
2023-09-10T12:39:45.339Z,95251.38
2023-09-10T12:42:12.312Z,95269.13
2023-09-10T12:44:42.705Z,95268.63
2023-09-10T12:47:13.977Z,95269.25
2023-09-10T12:49:47.089Z,95281.91
2023-09-10T12:52:14.208Z,95264.31
2023-09-10T12:54:41.083Z,95260.47
2023-09-10T12:57:09.522Z,95270.38
2023-09-10T12:59:37.663Z,95255.84
2023-09-10T13:02:06.678Z,95243.28
2023-09-10T13:04:33.936Z,95266.56
2023-09-10T13:07:01.093Z,95270.69
2023-09-10T13:09:30.316Z,95271.22
2023-09-10T13:11:59.823Z,95282.72
2023-09-10T13:14:26.723Z,95258.31
2023-09-10T13:16:53.715Z,95243.09
2023-09-10T13:19:20.798Z,95260.44
2023-09-10T13:21:47.786Z,95280.91
2023-09-10T13:24:16.411Z,95258.72
2023-09-10T13:26:45.001Z,95268.31
2023-09-10T13:29:13.174Z,95258.97
2023-09-10T13:31:40.168Z,95250.16
2023-09-10T13:34:07.303Z,95232.28
2023-09-10T13:36:34.390Z,95244.06
2023-09-10T13:39:04.102Z,95248.44
2023-09-10T13:41:31.132Z,95276.63
2023-09-10T13:44:00.255Z,95258.22
2023-09-10T13:46:27.343Z,95258.63
2023-09-10T13:48:56.950Z,95250.38
2023-09-10T13:51:25.742Z,95246.72
2023-09-10T13:53:52.734Z,95249.84
2023-09-10T13:56:19.641Z,95285.25
2023-09-10T13:58:49.282Z,95261.50
2023-09-10T14:01:16.189Z,95267.28
2023-09-10T14:03:43.214Z,95254.78
2023-09-10T14:06:15.933Z,95249.06
2023-09-10T14:08:45.378Z,95246.22
2023-09-10T14:11:12.272Z,95251.63
2023-09-10T14:13:42.312Z,95240.13
2023-09-10T14:16:09.788Z,95233.22
2023-09-10T14:18:41.917Z,95247.38
2023-09-10T14:21:11.345Z,95234.69
2023-09-10T14:23:38.454Z,95241.06
2023-09-10T14:26:07.284Z,95241.44
2023-09-10T14:28:34.203Z,95251.75
2023-09-10T14:31:02.621Z,95244.28
2023-09-10T14:33:32.933Z,95243.41
2023-09-10T14:36:01.213Z,95234.81
2023-09-10T14:38:33.237Z,95246.00
2023-09-10T14:41:00.205Z,95237.19
2023-09-10T14:43:29.618Z,95240.56
2023-09-10T14:45:58.135Z,95228.63
2023-09-10T14:48:27.549Z,95247.78
2023-09-10T14:50:54.464Z,95239.25
2023-09-10T14:53:24.125Z,95234.00
2023-09-10T14:55:51.083Z,95220.78
2023-09-10T14:58:19.773Z,95236.09
2023-09-10T15:00:50.688Z,95243.41
2023-09-10T15:03:21.907Z,95231.69
2023-09-10T15:05:49.114Z,95239.28
2023-09-10T15:08:16.088Z,95244.47
2023-09-10T15:10:45.540Z,95238.78
2023-09-10T15:13:12.532Z,95237.06
2023-09-10T15:15:43.189Z,95250.06
2023-09-10T15:18:10.338Z,95244.97
2023-09-10T15:20:37.276Z,95233.22
2023-09-10T15:23:05.557Z,95233.22
2023-09-10T15:25:35.257Z,95225.84
2023-09-10T15:28:13.632Z,95240.28
2023-09-10T15:30:40.568Z,95237.25
2023-09-10T15:33:10.275Z,95242.00
2023-09-10T15:35:37.212Z,95232.69
2023-09-10T15:38:06.897Z,95233.00
2023-09-10T15:40:37.625Z,95246.53
2023-09-10T15:43:04.677Z,95225.50
2023-09-10T15:45:34.136Z,95250.81
2023-09-10T15:48:02.190Z,95242.53
2023-09-10T15:50:29.142Z,95240.56
2023-09-10T15:52:56.170Z,95250.56
2023-09-10T15:55:25.894Z,95246.84
2023-09-10T15:57:58.693Z,95247.69
2023-09-10T16:00:28.339Z,95244.22
2023-09-10T16:02:57.216Z,95243.88
2023-09-10T16:05:27.128Z,95244.53
2023-09-10T16:07:54.101Z,95240.81
2023-09-10T16:10:22.037Z,95244.13
2023-09-10T16:12:48.997Z,95246.16
2023-09-10T16:15:16.108Z,95241.34
2023-09-10T16:17:47.656Z,95238.69
2023-09-10T16:20:19.946Z,95236.97
2023-09-10T16:22:47.906Z,95245.69
2023-09-10T16:25:14.813Z,95241.22
2023-09-10T16:27:42.351Z,95240.91
2023-09-10T16:30:12.577Z,95244.03
2023-09-10T16:32:43.782Z,95247.03
2023-09-10T16:35:11.077Z,95234.97
2023-09-10T16:37:39.685Z,95253.47
2023-09-10T16:40:07.236Z,95252.63
2023-09-10T16:42:34.180Z,95236.03
2023-09-10T16:45:01.762Z,95224.41
2023-09-10T16:47:28.698Z,95246.94
2023-09-10T16:49:57.425Z,95235.91
2023-09-10T16:52:24.292Z,95242.66
2023-09-10T16:54:52.965Z,95250.88
2023-09-10T16:57:19.880Z,95257.63
2023-09-10T16:59:49.435Z,95253.34
2023-09-10T17:02:22.043Z,95242.63
2023-09-10T17:04:49.361Z,95252.44
2023-09-10T17:07:17.896Z,95244.88
2023-09-10T17:09:48.155Z,95251.03
2023-09-10T17:14:58.442Z,95254.41
2023-09-10T17:17:28.906Z,95250.94
2023-09-10T17:20:00.589Z,95253.63
2023-09-10T17:22:27.511Z,95253.66
2023-09-10T17:24:54.387Z,95264.34
2023-09-10T17:27:23.312Z,95246.75
2023-09-10T17:29:58.039Z,95276.34
2023-09-10T17:32:25.134Z,95254.38
2023-09-10T17:34:54.864Z,95278.72
2023-09-10T17:37:24.318Z,95269.41
2023-09-10T17:39:54.048Z,95281.25
2023-09-10T17:42:22.153Z,95259.06
2023-09-10T17:44:57.390Z,95285.88
2023-09-10T17:47:31.887Z,95289.91
2023-09-10T17:50:07.137Z,95276.28
2023-09-10T17:52:37.696Z,95282.84
2023-09-10T17:55:11.581Z,95298.94
2023-09-10T17:57:38.517Z,95298.19
2023-09-10T18:00:10.777Z,95293.84
2023-09-10T18:02:40.929Z,95299.34
2023-09-10T18:05:09.317Z,95310.97
2023-09-10T18:07:40.246Z,95299.28
2023-09-10T18:10:07.805Z,95293.75
2023-09-10T18:12:35.768Z,95311.81
2023-09-10T18:15:02.784Z,95315.09
2023-09-10T18:17:34.107Z,95310.31
2023-09-10T18:20:03.853Z,95309.56
2023-09-10T18:22:35.354Z,95298.59
2023-09-10T18:25:02.715Z,95298.13
2023-09-10T18:27:31.527Z,95312.44
2023-09-10T18:29:58.381Z,95296.25
2023-09-10T18:32:30.108Z,95309.75
2023-09-10T18:34:58.141Z,95315.56
2023-09-10T18:37:27.297Z,95309.88
2023-09-10T18:39:54.305Z,95321.13
2023-09-10T18:42:21.261Z,95319.09
2023-09-10T18:44:48.199Z,95317.31
2023-09-10T18:47:17.339Z,95316.63
2023-09-10T18:49:44.423Z,95314.34
2023-09-10T18:52:23.782Z,95315.13
2023-09-10T18:54:53.698Z,95298.38
2023-09-10T18:57:20.649Z,95317.66
2023-09-10T18:59:50.564Z,95321.22
2023-09-10T19:02:30.741Z,95327.44
2023-09-10T19:04:59.476Z,95327.50
2023-09-10T19:07:26.583Z,95327.28
2023-09-10T19:09:56.681Z,95329.03
2023-09-10T19:12:23.708Z,95327.59
2023-09-10T19:14:51.071Z,95324.66
2023-09-10T19:20:09.000Z,95276.41
2023-09-10T19:22:37.192Z,95348.16
2023-09-10T19:25:07.996Z,95331.84
2023-09-10T19:27:37.079Z,95334.38
2023-09-10T19:30:05.291Z,95330.94
2023-09-10T19:32:34.255Z,95338.50
2023-09-10T19:35:05.315Z,95339.81
2023-09-10T19:37:33.571Z,95341.38
2023-09-10T19:40:02.948Z,95322.13
2023-09-10T19:42:30.329Z,95280.56
2023-09-10T19:45:04.397Z,95350.28
2023-09-10T19:47:35.951Z,95346.03
2023-09-10T19:50:07.905Z,95350.56
2023-09-10T19:52:42.215Z,95354.06
2023-09-10T19:55:10.065Z,95358.34
2023-09-10T19:57:37.923Z,95338.03
2023-09-10T20:00:06.017Z,95341.03
2023-09-10T20:02:33.609Z,95349.81
2023-09-10T20:05:02.439Z,95343.56
2023-09-10T20:07:33.150Z,95351.56
2023-09-10T20:10:01.297Z,95339.78
2023-09-10T20:12:28.352Z,95331.03
2023-09-10T20:14:55.574Z,95336.28
2023-09-10T20:17:24.943Z,95346.81
2023-09-10T20:19:52.747Z,95343.03
2023-09-10T20:22:20.806Z,95339.78
2023-09-10T20:24:47.754Z,95336.03
2023-09-10T20:27:18.041Z,95350.81
2023-09-10T20:29:46.802Z,95351.09
2023-09-10T20:32:13.700Z,95349.84
2023-09-10T20:34:44.917Z,95345.06
2023-09-10T20:37:11.781Z,95342.06
2023-09-10T20:39:38.690Z,95337.53
2023-09-10T20:42:06.283Z,95342.31
2023-09-10T20:44:33.985Z,95340.06
2023-09-10T20:47:05.712Z,95341.31
2023-09-10T20:49:35.244Z,95344.81
2023-09-10T20:52:03.912Z,95346.06
2023-09-10T20:54:43.355Z,95353.84
2023-09-10T20:57:15.724Z,95335.50
2023-09-10T20:59:42.623Z,95350.56
2023-09-10T21:04:54.709Z,95346.00
2023-09-10T21:07:21.998Z,95348.53
2023-09-10T21:09:49.803Z,95345.78
2023-09-10T21:12:20.064Z,95345.00
2023-09-10T21:14:50.033Z,95345.78
2023-09-10T21:17:22.650Z,95335.72
2023-09-10T21:19:52.458Z,95339.50
2023-09-10T21:22:19.417Z,95340.00
2023-09-10T21:24:48.182Z,95339.47
2023-09-10T21:27:15.045Z,95327.44
2023-09-10T21:29:41.880Z,95338.69
2023-09-10T21:32:09.925Z,95323.91
2023-09-10T21:34:36.879Z,95331.41
2023-09-10T21:37:06.777Z,95336.94
2023-09-10T21:39:33.657Z,95341.66
2023-09-10T21:42:01.825Z,95336.63
2023-09-10T21:44:29.024Z,95324.53
2023-09-10T21:46:58.036Z,95324.75
2023-09-10T21:49:30.863Z,95322.69
2023-09-10T21:52:00.846Z,95339.47
2023-09-10T21:54:35.238Z,95330.63
2023-09-10T21:57:04.664Z,95354.47
2023-09-10T21:59:39.924Z,95351.44
2023-09-10T22:02:07.116Z,95331.06
2023-09-10T22:04:34.120Z,95324.22
2023-09-10T22:07:01.830Z,95345.28
2023-09-10T22:09:28.949Z,95311.75
2023-09-10T22:11:55.809Z,95337.75
2023-09-10T22:14:22.666Z,95353.47
2023-09-10T22:16:52.237Z,95345.13
2023-09-10T22:19:27.673Z,95370.69
2023-09-10T22:21:54.895Z,95361.13
2023-09-10T22:24:21.816Z,95372.72
2023-09-10T22:26:48.733Z,95363.78
2023-09-10T22:29:15.805Z,95380.97
2023-09-10T22:31:43.437Z,95355.84
2023-09-10T22:34:10.324Z,95323.75
2023-09-10T22:36:38.862Z,95367.13
2023-09-10T22:39:07.693Z,95369.50
2023-09-10T22:41:34.581Z,95359.97
2023-09-10T22:44:01.430Z,95362.19
2023-09-10T22:46:28.906Z,95376.47
2023-09-10T22:48:55.889Z,95360.13
2023-09-10T22:51:23.102Z,95374.44
2023-09-10T22:53:52.531Z,95369.78
2023-09-10T22:56:21.750Z,95369.22
2023-09-10T22:58:48.946Z,95366.91
2023-09-10T23:01:17.949Z,95381.41
2023-09-10T23:03:45.150Z,95369.72
2023-09-10T23:06:12.536Z,95361.97
2023-09-10T23:08:40.121Z,95366.63
2023-09-10T23:11:07.337Z,95374.44
2023-09-10T23:13:35.715Z,95368.31
2023-09-10T23:16:03.470Z,95365.16
2023-09-10T23:18:30.287Z,95357.13
2023-09-10T23:20:57.004Z,95368.72
2023-09-10T23:23:23.779Z,95358.50
2023-09-10T23:25:50.542Z,95359.56
2023-09-10T23:28:17.334Z,95356.59
2023-09-10T23:30:46.895Z,95361.63
2023-09-10T23:33:13.613Z,95358.50
2023-09-10T23:35:40.593Z,95363.56
2023-09-10T23:38:08.269Z,95359.47
2023-09-10T23:40:37.308Z,95342.97
2023-09-10T23:43:04.050Z,95359.00
2023-09-10T23:45:30.716Z,95368.75
2023-09-10T23:47:57.559Z,95363.19
2023-09-10T23:50:24.298Z,95367.41
2023-09-10T23:52:50.919Z,95354.91
2023-09-10T23:55:17.802Z,95322.09
2023-09-10T23:57:44.591Z,95362.84
